Map

Track Data

SID SEASON NUMBER BASIN SUBBASIN NAME ISO_TIME NATURE LAT LON WMO_WIND WMO_PRES WMO_AGENCY TRACK_TYPE DIST2LAND LANDFALL IFLAG USA_AGENCY USA_ATCF_ID USA_LAT USA_LON USA_RECORD USA_STATUS USA_WIND USA_PRES USA_SSHS USA_R34_NE USA_R34_SE USA_R34_SW USA_R34_NW USA_R50_NE USA_R50_SE USA_R50_SW USA_R50_NW USA_R64_NE USA_R64_SE USA_R64_SW USA_R64_NW USA_POCI USA_ROCI USA_RMW USA_EYE TOKYO_LAT TOKYO_LON TOKYO_GRADE TOKYO_WIND TOKYO_PRES TOKYO_R50_DIR TOKYO_R50_LONG TOKYO_R50_SHORT TOKYO_R30_DIR TOKYO_R30_LONG TOKYO_R30_SHORT TOKYO_LAND CMA_LAT CMA_LON CMA_CAT CMA_WIND CMA_PRES HKO_LAT HKO_LON HKO_CAT HKO_WIND HKO_PRES NEWDELHI_LAT NEWDELHI_LON NEWDELHI_GRADE NEWDELHI_WIND NEWDELHI_PRES NEWDELHI_CI NEWDELHI_DP NEWDELHI_POCI REUNION_LAT REUNION_LON REUNION_TYPE REUNION_WIND REUNION_PRES REUNION_TNUM REUNION_CI REUNION_RMW REUNION_R34_NE REUNION_R34_SE REUNION_R34_SW REUNION_R34_NW REUNION_R50_NE REUNION_R50_SE REUNION_R50_SW REUNION_R50_NW REUNION_R64_NE REUNION_R64_SE REUNION_R64_SW REUNION_R64_NW BOM_LAT BOM_LON BOM_TYPE BOM_WIND BOM_PRES BOM_TNUM BOM_CI BOM_RMW BOM_R34_NE BOM_R34_SE BOM_R34_SW BOM_R34_NW BOM_R50_NE BOM_R50_SE BOM_R50_SW BOM_R50_NW BOM_R64_NE BOM_R64_SE BOM_R64_SW BOM_R64_NW BOM_ROCI BOM_POCI BOM_EYE BOM_POS_METHOD BOM_PRES_METHOD NADI_LAT NADI_LON NADI_CAT NADI_WIND NADI_PRES WELLINGTON_LAT WELLINGTON_LON WELLINGTON_WIND WELLINGTON_PRES DS824_LAT DS824_LON DS824_STAGE DS824_WIND DS824_PRES TD9636_LAT TD9636_LON TD9636_STAGE TD9636_WIND TD9636_PRES TD9635_LAT TD9635_LON TD9635_WIND TD9635_PRES TD9635_ROCI NEUMANN_LAT NEUMANN_LON NEUMANN_CLASS NEUMANN_WIND NEUMANN_PRES MLC_LAT MLC_LON MLC_CLASS MLC_WIND MLC_PRES USA_GUST BOM_GUST BOM_GUST_PER REUNION_GUST REUNION_GUST_PER USA_SEAHGT USA_SEARAD_NE USA_SEARAD_SE USA_SEARAD_SW USA_SEARAD_NW STORM_SPEED STORM_DIR
1923297N19300 1923 70 NA NA NOT_NAMED 1923-10-24 06:00:00 TS 19.3000 -59.8000 35 hurdat_atl main 618 611 O_____________ hurdat_atl AL091923 19.3000 -59.8000 TS 35 0 7 345
1923297N19300 1923 70 NA NA NOT_NAMED 1923-10-24 09:00:00 TS 19.6500 -59.8999 main 616 608 P_____________ AL091923 19.6500 -59.8999 TS 35 0 7 345
1923297N19300 1923 70 NA NA NOT_NAMED 1923-10-24 12:00:00 TS 20.0000 -60.0000 35 hurdat_atl main 614 611 O_____________ hurdat_atl AL091923 20.0000 -60.0000 TS 35 0 7 345
1923297N19300 1923 70 NA NA NOT_NAMED 1923-10-24 15:00:00 TS 20.3500 -60.1000 main 614 612 P_____________ AL091923 20.3500 -60.1000 TS 35 0 7 345
1923297N19300 1923 70 NA NA NOT_NAMED 1923-10-24 18:00:00 TS 20.7000 -60.2000 35 hurdat_atl main 621 621 O_____________ hurdat_atl AL091923 20.7000 -60.2000 TS 35 0 7 345
1923297N19300 1923 70 NA NA NOT_NAMED 1923-10-24 21:00:00 TS 21.0425 -60.3001 main 626 626 P_____________ AL091923 21.0425 -60.3001 TS 35 0 7 345
1923297N19300 1923 70 NA NA NOT_NAMED 1923-10-25 00:00:00 TS 21.4000 -60.4000 35 hurdat_atl main 638 638 O_____________ hurdat_atl AL091923 21.4000 -60.4000 TS 35 0 8 347
1923297N19300 1923 70 NA NA NOT_NAMED 1923-10-25 03:00:00 TS 21.7925 -60.4852 main 654 654 P_____________ AL091923 21.7925 -60.4852 TS 35 0 8 347
1923297N19300 1923 70 NA NA NOT_NAMED 1923-10-25 06:00:00 TS 22.2000 -60.6000 35 hurdat_atl main 672 672 O_____________ hurdat_atl AL091923 22.2000 -60.6000 TS 35 0 8 343
1923297N19300 1923 70 NA NA NOT_NAMED 1923-10-25 09:00:00 TS 22.5999 -60.7553 main 685 685 P_____________ AL091923 22.5999 -60.7553 TS 35 0 9 335
1923297N19300 1923 70 NA NA NOT_NAMED 1923-10-25 12:00:00 TS 23.0000 -61.0000 35 hurdat_atl main 702 702 O_____________ hurdat_atl AL091923 23.0000 -61.0000 TS 35 0 10 326
1923297N19300 1923 70 NA NA NOT_NAMED 1923-10-25 15:00:00 TS 23.3923 -61.3404 main 715 709 P_____________ AL091923 23.3923 -61.3404 TS 35 0 11 317
1923297N19300 1923 70 NA NA NOT_NAMED 1923-10-25 18:00:00 TS 23.8000 -61.8000 35 hurdat_atl main 720 715 O_____________ hurdat_atl AL091923 23.8000 -61.8000 TS 35 0 13 312
1923297N19300 1923 70 NA NA NOT_NAMED 1923-10-25 21:00:00 TS 24.2426 -62.3700 main 728 728 P_____________ AL091923 24.2426 -62.3700 TS 37 0 14 309
1923297N19300 1923 70 NA NA NOT_NAMED 1923-10-26 00:00:00 TS 24.7000 -63.0000 40 hurdat_atl main 753 753 O_____________ hurdat_atl AL091923 24.7000 -63.0000 TS 40 0 15 308
1923297N19300 1923 70 NA NA NOT_NAMED 1923-10-26 03:00:00 TS 25.1501 -63.6301 main 787 785 P_____________ AL091923 25.1501 -63.6301 TS 40 0 14 310
1923297N19300 1923 70 NA NA NOT_NAMED 1923-10-26 06:00:00 TS 25.6000 -64.2000 40 hurdat_atl main 817 816 O_____________ hurdat_atl AL091923 25.6000 -64.2000 TS 40 0 13 313
1923297N19300 1923 70 NA NA NOT_NAMED 1923-10-26 09:00:00 TS 26.0274 -64.6752 main 854 854 P_____________ AL091923 26.0274 -64.6752 TS 40 0 12 321
1923297N19300 1923 70 NA NA NOT_NAMED 1923-10-26 12:00:00 TS 26.5000 -65.0000 40 hurdat_atl main 907 907 O_____________ hurdat_atl AL091923 26.5000 -65.0000 TS 40 0 11 337
1923297N19300 1923 70 NA NA NOT_NAMED 1923-10-26 15:00:00 TS 27.0698 -65.1751 main 967 967 P_____________ AL091923 27.0698 -65.1751 TS 37 0 12 352
1923297N19300 1923 70 NA NA NOT_NAMED 1923-10-26 18:00:00 TS 27.7000 -65.2000 35 hurdat_atl main 1027 1027 O_____________ hurdat_atl AL091923 27.7000 -65.2000 TS 35 0 13 2
1923297N19300 1923 70 NA NA NOT_NAMED 1923-10-26 21:00:00 TS 28.3476 -65.1254 main 1091 1091 P_____________ AL091923 28.3476 -65.1254 TS 35 0 13 8
1923297N19300 1923 70 NA NA NOT_NAMED 1923-10-27 00:00:00 ET 29.0000 -65.0000 35 hurdat_atl main 1165 O_____________ hurdat_atl AL091923 29.0000 -65.0000 EX 35 -4 13 10

About IBTrACS Database

This database is a web-friendly format of International Best Track Archive for Climate Stewardship (IBTrACS), a global best track data archive curated by NOAA dating back to 1842.

Updated: 2021-10-25